This is the latest recevied weather packets stored in our database for station/object OK1TBM-13. If no packets are shown the sender has not sent any weather packets the latest 10 day(s).
| Time | Temp. | Humidity | Pressure | Rain* | Wind** | Luminosity | Snow |
|---|---|---|---|---|---|---|---|
| 1788350401 | 24.44° C | 48% | 1019.3 hPa | 0 mm | - | 710 W/m² | - |
| 1788349802 | 24.44° C | 51% | 1019.3 hPa | 0 mm | - | 682 W/m² | - |
| 1788349502 | 24.44° C | 50% | 1019.3 hPa | 0 mm | - | 468 W/m² | - |
| 1788349200 | 24.44° C | 49% | 1019.3 hPa | 0 mm | - | 373 W/m² | - |
| 1788348901 | 25° C | 49% | 1019.3 hPa | 0 mm | - | 497 W/m² | - |
| 1788348601 | 24.44° C | 50% | 1019.3 hPa | 0 mm | - | 646 W/m² | - |
| 1788348000 | 24.44° C | 49% | 1019.3 hPa | 0 mm | - | 329 W/m² | - |
| 1788347700 | 24.44° C | 51% | 1019.3 hPa | 0 mm | - | 346 W/m² | - |
| 1788347402 | 24.44° C | 51% | 1019.3 hPa | 0 mm | - | 815 W/m² | - |
| 1788347102 | 26.11° C | 47% | 1019.3 hPa | 0 mm | - | 846 W/m² | - |
| 1788346802 | 25.56° C | 49% | 1019.6 hPa | 0 mm | - | 688 W/m² | - |
| 1788346202 | 25.56° C | 47% | 1019.6 hPa | 0 mm | - | 773 W/m² | - |
| 1788345601 | 24.44° C | 49% | 1019.6 hPa | 0 mm | - | 538 W/m² | - |
| 1788345301 | 25° C | 49% | 1019.6 hPa | 0 mm | - | 737 W/m² | - |
| 1788345001 | 24.44° C | 51% | 1019.6 hPa | 0 mm | - | 728 W/m² | - |
| 1788344707 | 24.44° C | 51% | 1020 hPa | 0 mm | - | 713 W/m² | - |
| 1788344101 | 25.56° C | 49% | 1020 hPa | 0 mm | - | 702 W/m² | - |
| 1788343801 | 24.44° C | 51% | 1020 hPa | 0 mm | - | 697 W/m² | - |
| 1788343501 | 24.44° C | 50% | 1020 hPa | 0 mm | - | 660 W/m² | - |
| 1788343201 | 24.44° C | 51% | 1020 hPa | 0 mm | - | 650 W/m² | - |
| 1788342907 | 24.44° C | 51% | 1020 hPa | 0 mm | - | 672 W/m² | - |
| 1788342601 | 23.89° C | 53% | 1020 hPa | 0 mm | - | 668 W/m² | - |
| 1788342301 | 24.44° C | 52% | 1020 hPa | 0 mm | - | 662 W/m² | - |
| 1788342001 | 23.89° C | 53% | 1020 hPa | 0 mm | - | 656 W/m² | - |
| 1788341707 | 24.44° C | 51% | 1020 hPa | 0 mm | - | 644 W/m² | - |
* Rain latest hour (hover to see other rain measurements)
** Current wind speed in m/s (hover to see current wind gust speed)